Time;durP1;ratioP1;P1;durP2;ratioP2;P2;SDS_P1;SDS_P2;PMS_P1;PMS_P2;Temp;Humidity;BMP_temperature;BMP_pressure;BME280_temperature;BME280_humidity;BME280_pressure;Samples;Min_cycle;Max_cycle;Signal;HPM_P1;HPM_P2
2023/05/04 00:02:11;;;;;;;7.73;4.37;;;8.50;99.90;;;;;;5034285;28;20750;-45
2023/05/04 00:04:36;;;;;;;7.30;4.10;;;8.50;99.90;;;;;;5034300;28;20176;-46
2023/05/04 00:07:02;;;;;;;7.93;4.40;;;8.50;99.90;;;;;;5033954;28;20234;-46
2023/05/04 00:09:28;;;;;;;12.97;4.17;;;8.50;99.90;;;;;;5033988;28;20511;-46
2023/05/04 00:11:53;;;;;;;9.50;3.93;;;8.40;99.90;;;;;;5033817;28;20259;-44
2023/05/04 00:14:19;;;;;;;7.97;4.13;;;8.40;99.90;;;;;;5033849;28;20185;-44
2023/05/04 00:16:44;;;;;;;6.10;4.37;;;8.40;99.90;;;;;;5033733;28;20205;-44
2023/05/04 00:19:10;;;;;;;7.23;3.87;;;8.40;99.90;;;;;;5016537;28;20203;-46
2023/05/04 00:21:36;;;;;;;6.07;3.77;;;8.30;99.90;;;;;;5033710;28;20553;-45
2023/05/04 00:24:02;;;;;;;8.40;3.93;;;8.30;99.90;;;;;;5033663;28;20200;-44
2023/05/04 00:26:27;;;;;;;8.37;3.63;;;8.20;99.90;;;;;;5033674;28;20183;-44
2023/05/04 00:28:53;;;;;;;9.90;3.93;;;8.20;99.90;;;;;;5033615;28;20183;-45
2023/05/04 00:31:18;;;;;;;9.67;4.03;;;8.20;99.90;;;;;;5033948;28;20171;-44
2023/05/04 00:33:44;;;;;;;7.03;3.50;;;8.20;99.90;;;;;;5033492;28;20204;-45
2023/05/04 00:36:12;;;;;;;14.00;4.53;;;8.30;99.90;;;;;;5033613;28;20544;-45
2023/05/04 00:38:51;;;;;;;7.83;3.93;;;8.30;99.90;;;;;;5033404;28;20572;-44
2023/05/04 00:41:17;;;;;;;11.07;3.90;;;8.30;99.90;;;;;;5033971;28;20213;-47
2023/05/04 00:43:43;;;;;;;11.03;3.97;;;8.30;99.90;;;;;;5033337;28;20204;-43
2023/05/04 00:46:10;;;;;;;15.33;4.40;;;8.20;99.90;;;;;;5032779;28;20202;-45
2023/05/04 00:48:37;;;;;;;8.20;4.00;;;8.30;99.90;;;;;;5033247;28;20257;-46
2023/05/04 00:51:05;;;;;;;9.53;4.33;;;8.30;99.90;;;;;;5033670;28;20588;-45
2023/05/04 00:53:31;;;;;;;8.87;4.50;;;8.20;99.90;;;;;;5033319;28;20254;-44
2023/05/04 00:55:57;;;;;;;13.30;4.63;;;8.20;99.90;;;;;;5033307;28;20188;-44
2023/05/04 00:58:23;;;;;;;5.30;3.83;;;8.20;99.90;;;;;;5033682;28;20260;-45
2023/05/04 01:00:49;;;;;;;10.50;4.80;;;8.10;99.90;;;;;;5033489;28;20263;-44
2023/05/04 01:03:15;;;;;;;8.43;4.60;;;8.10;99.90;;;;;;5033863;28;20291;-45
2023/05/04 01:06:17;;;;;;;9.43;4.70;;;8.00;99.90;;;;;;5033459;28;20185;-45
2023/05/04 01:08:51;;;;;;;9.40;4.67;;;8.00;99.90;;;;;;5033411;28;20175;-44
2023/05/04 01:11:30;;;;;;;9.73;3.63;;;8.00;99.90;;;;;;5033466;28;20531;-45
2023/05/04 01:13:57;;;;;;;5.63;4.03;;;7.90;99.90;;;;;;5033314;28;20211;-45
2023/05/04 01:16:23;;;;;;;7.57;3.70;;;7.90;99.90;;;;;;5033094;28;20177;-45
2023/05/04 01:18:48;;;;;;;7.50;4.43;;;7.90;99.90;;;;;;5033059;28;20698;-46
2023/05/04 01:21:14;;;;;;;12.80;4.40;;;7.90;99.90;;;;;;5033169;28;20238;-46
2023/05/04 01:23:39;;;;;;;13.93;5.10;;;7.90;99.90;;;;;;5033616;28;20198;-44
2023/05/04 01:26:26;;;;;;;9.27;4.40;;;7.90;99.90;;;;;;5033150;28;20201;-46
2023/05/04 01:29:23;;;;;;;13.97;4.20;;;7.90;99.90;;;;;;5033179;28;20191;-43
2023/05/04 01:31:51;;;;;;;17.40;4.70;;;7.80;99.90;;;;;;5033136;28;20264;-45
2023/05/04 01:34:17;;;;;;;11.50;4.13;;;7.90;99.90;;;;;;5033272;28;20193;-44
2023/05/04 01:36:44;;;;;;;10.00;4.67;;;7.80;99.90;;;;;;5033426;28;20648;-44
2023/05/04 01:39:10;;;;;;;8.10;4.27;;;7.80;99.90;;;;;;5033182;28;20271;-43
2023/05/04 01:41:36;;;;;;;7.20;4.00;;;7.90;99.90;;;;;;5033240;28;20259;-45
2023/05/04 01:44:02;;;;;;;6.43;3.83;;;7.90;99.90;;;;;;5033380;28;20213;-45
2023/05/04 01:46:28;;;;;;;11.20;4.63;;;7.80;99.90;;;;;;5032862;28;20201;-43
2023/05/04 01:48:53;;;;;;;14.47;4.23;;;7.80;99.90;;;;;;5032822;28;20205;-44
2023/05/04 01:51:19;;;;;;;11.97;3.93;;;7.80;99.90;;;;;;5032807;28;20191;-45
2023/05/04 01:53:45;;;;;;;11.57;4.80;;;7.80;99.90;;;;;;5032829;28;20263;-44
2023/05/04 01:56:10;;;;;;;11.50;4.07;;;7.80;99.90;;;;;;5033892;28;20205;-44
2023/05/04 01:58:36;;;;;;;13.60;4.13;;;7.80;99.90;;;;;;5036708;28;20294;-43
2023/05/04 02:01:01;;;;;;;6.40;4.10;;;7.80;99.90;;;;;;5036640;28;20520;-44
2023/05/04 02:03:27;;;;;;;7.80;4.20;;;7.70;99.90;;;;;;5036278;28;20666;-46
2023/05/04 02:05:53;;;;;;;11.23;3.70;;;7.70;99.90;;;;;;5036654;28;20558;-44
2023/05/04 02:08:18;;;;;;;9.20;3.93;;;7.70;99.90;;;;;;5036644;28;20177;-44
2023/05/04 02:10:44;;;;;;;8.53;3.73;;;7.70;99.90;;;;;;5036340;28;20216;-45
2023/05/04 02:13:09;;;;;;;6.57;4.40;;;7.60;99.90;;;;;;5036361;28;20197;-44
2023/05/04 02:15:35;;;;;;;11.30;3.90;;;7.60;99.90;;;;;;5036233;28;20708;-43
2023/05/04 02:18:01;;;;;;;10.33;4.60;;;7.60;99.90;;;;;;5036113;28;20205;-47
2023/05/04 02:20:26;;;;;;;11.10;4.77;;;7.50;99.90;;;;;;5036240;28;20176;-44
2023/05/04 02:22:52;;;;;;;7.47;4.23;;;7.50;99.90;;;;;;5036048;28;20528;-45
2023/05/04 02:25:17;;;;;;;11.07;4.17;;;7.40;99.90;;;;;;5036887;28;20178;-44
2023/05/04 02:27:43;;;;;;;8.03;3.87;;;7.40;99.90;;;;;;5037617;28;20261;-48
2023/05/04 02:30:09;;;;;;;11.20;3.53;;;7.40;99.90;;;;;;5036668;28;20174;-49
2023/05/04 02:32:35;;;;;;;10.20;4.20;;;7.30;99.90;;;;;;5036285;28;20223;-50
2023/05/04 02:35:01;;;;;;;13.13;4.17;;;7.30;99.90;;;;;;5036077;28;20185;-48
2023/05/04 02:37:27;;;;;;;10.20;4.10;;;7.30;99.90;;;;;;5035927;28;20212;-49
2023/05/04 02:39:52;;;;;;;11.90;4.60;;;7.30;99.90;;;;;;5035871;28;20311;-49
2023/05/04 02:42:18;;;;;;;13.80;5.20;;;7.30;99.90;;;;;;5035898;28;20777;-48
2023/05/04 02:44:43;;;;;;;20.73;4.97;;;7.30;99.90;;;;;;5035886;28;20232;-49
2023/05/04 02:47:09;;;;;;;13.83;4.40;;;7.40;99.90;;;;;;5035712;28;20517;-49
2023/05/04 02:49:35;;;;;;;12.30;4.20;;;7.40;99.90;;;;;;5035746;28;20283;-49
2023/05/04 02:52:00;;;;;;;18.60;4.30;;;7.40;99.90;;;;;;5035847;28;20208;-48
2023/05/04 02:54:26;;;;;;;11.63;4.23;;;7.40;99.90;;;;;;5038198;28;20173;-50
2023/05/04 02:56:51;;;;;;;13.77;4.10;;;7.30;99.90;;;;;;5040309;28;20184;-49
2023/05/04 02:59:17;;;;;;;14.43;4.07;;;7.30;99.90;;;;;;5037593;28;20599;-49
2023/05/04 03:01:43;;;;;;;10.63;4.03;;;7.20;99.90;;;;;;5035607;28;20185;-50
2023/05/04 03:04:08;;;;;;;6.90;3.80;;;7.10;99.90;;;;;;5035278;28;20520;-48
2023/05/04 03:06:35;;;;;;;13.60;3.63;;;7.10;99.90;;;;;;5035582;28;20186;-48
2023/05/04 03:09:00;;;;;;;7.83;3.73;;;7.00;99.90;;;;;;5034777;28;20634;-48
2023/05/04 03:11:26;;;;;;;13.73;3.77;;;7.00;99.90;;;;;;5035140;28;20185;-49
2023/05/04 03:13:51;;;;;;;11.27;3.20;;;6.80;99.90;;;;;;5035024;28;20208;-50
2023/05/04 03:16:17;;;;;;;10.10;3.47;;;6.90;99.90;;;;;;5035274;28;20185;-50
2023/05/04 03:18:43;;;;;;;7.83;3.37;;;6.80;99.90;;;;;;5035161;28;20263;-50
2023/05/04 03:21:08;;;;;;;8.30;2.97;;;6.80;99.90;;;;;;5035194;28;20177;-48
2023/05/04 03:23:35;;;;;;;7.23;3.20;;;6.70;99.90;;;;;;5034806;28;20239;-50
2023/05/04 03:26:00;;;;;;;5.57;2.83;;;6.70;99.90;;;;;;5034762;28;20188;-50
2023/05/04 03:28:26;;;;;;;6.27;3.30;;;6.70;99.90;;;;;;5035045;28;20185;-50
2023/05/04 03:30:51;;;;;;;5.40;3.10;;;6.70;99.90;;;;;;5035053;28;20195;-50
2023/05/04 03:33:17;;;;;;;7.87;3.77;;;6.70;99.90;;;;;;5034793;28;20231;-49
2023/05/04 03:35:42;;;;;;;4.93;2.90;;;6.60;99.90;;;;;;5034714;28;20186;-49
2023/05/04 03:38:09;;;;;;;5.10;2.80;;;6.60;99.90;;;;;;5035429;28;20211;-51
2023/05/04 03:40:35;;;;;;;4.83;2.90;;;6.60;99.90;;;;;;5034935;28;20188;-48
2023/05/04 03:43:00;;;;;;;5.90;3.20;;;6.50;99.90;;;;;;5034598;28;20250;-50
2023/05/04 03:45:27;;;;;;;4.67;3.20;;;6.60;99.90;;;;;;5034785;28;20177;-48
2023/05/04 03:47:54;;;;;;;5.73;2.83;;;6.50;99.90;;;;;;5034587;28;20193;-50
2023/05/04 03:50:21;;;;;;;5.37;3.30;;;6.50;99.90;;;;;;5034332;28;20169;-49
2023/05/04 03:52:46;;;;;;;4.73;2.93;;;6.50;99.90;;;;;;5034482;28;20208;-49
2023/05/04 03:55:12;;;;;;;5.90;3.23;;;6.40;99.90;;;;;;5034251;28;20606;-48
2023/05/04 03:57:37;;;;;;;9.10;3.37;;;6.40;99.90;;;;;;5034139;28;20255;-48
2023/05/04 04:00:04;;;;;;;4.40;3.00;;;6.30;99.90;;;;;;5034145;28;20181;-49
2023/05/04 04:02:30;;;;;;;4.50;3.00;;;6.30;99.90;;;;;;5034333;28;20203;-48
2023/05/04 04:04:56;;;;;;;6.00;3.30;;;6.30;99.90;;;;;;5034341;28;20177;-50
2023/05/04 04:07:22;;;;;;;6.77;3.33;;;6.30;99.90;;;;;;5034044;28;20184;-49
2023/05/04 04:09:47;;;;;;;8.30;3.90;;;6.30;99.90;;;;;;5034225;28;20189;-49
2023/05/04 04:12:14;;;;;;;6.77;3.20;;;6.30;99.90;;;;;;5033928;28;20689;-50
2023/05/04 04:14:40;;;;;;;4.80;2.97;;;6.30;99.90;;;;;;5034188;28;20193;-51
2023/05/04 04:17:07;;;;;;;4.17;2.80;;;6.30;99.90;;;;;;5033803;28;20208;-50
2023/05/04 04:19:32;;;;;;;5.27;3.37;;;6.30;99.90;;;;;;5033334;28;20185;-49
2023/05/04 04:21:58;;;;;;;8.13;3.53;;;6.30;99.90;;;;;;5033977;28;20659;-51
2023/05/04 04:24:24;;;;;;;8.83;3.73;;;6.30;99.90;;;;;;5034080;28;20192;-49
2023/05/04 04:26:50;;;;;;;6.60;3.27;;;6.30;99.90;;;;;;5033717;28;20648;-50
2023/05/04 04:29:16;;;;;;;6.20;3.40;;;6.30;99.90;;;;;;5034000;28;20181;-50
2023/05/04 04:31:42;;;;;;;6.53;3.17;;;6.30;99.90;;;;;;5033752;28;20600;-49
2023/05/04 04:34:07;;;;;;;8.07;3.93;;;6.40;99.90;;;;;;5033597;28;20679;-49
2023/05/04 04:36:33;;;;;;;6.33;3.53;;;6.30;99.90;;;;;;5033614;28;20614;-49
2023/05/04 04:38:59;;;;;;;5.10;3.63;;;6.40;99.90;;;;;;5033764;28;20215;-48
2023/05/04 04:41:25;;;;;;;7.67;3.87;;;6.40;99.90;;;;;;5033491;28;20177;-48
2023/05/04 04:43:51;;;;;;;5.33;3.73;;;6.50;99.90;;;;;;5033664;28;20284;-49
2023/05/04 04:46:18;;;;;;;6.57;4.10;;;6.50;99.90;;;;;;5033967;28;20177;-48
2023/05/04 04:48:43;;;;;;;9.23;4.03;;;6.60;99.90;;;;;;5033323;28;20256;-50
2023/05/04 04:51:10;;;;;;;6.60;3.63;;;6.70;99.90;;;;;;5033347;28;20215;-49
2023/05/04 04:53:36;;;;;;;7.17;3.37;;;6.70;99.90;;;;;;5033499;28;20696;-48
2023/05/04 04:56:01;;;;;;;4.80;3.13;;;6.80;99.90;;;;;;5033574;28;20181;-49
2023/05/04 04:58:27;;;;;;;5.13;3.30;;;6.90;99.90;;;;;;5033450;28;20274;-51
2023/05/04 05:00:54;;;;;;;7.37;3.33;;;7.00;99.90;;;;;;5033846;28;20177;-45
2023/05/04 05:03:20;;;;;;;5.50;3.17;;;7.10;99.90;;;;;;5033484;28;20211;-44
2023/05/04 05:05:46;;;;;;;3.90;3.43;;;7.10;99.90;;;;;;5033210;28;20180;-43
2023/05/04 05:08:11;;;;;;;6.10;3.50;;;7.30;99.90;;;;;;5033288;28;20265;-45
2023/05/04 05:10:37;;;;;;;7.87;3.63;;;7.30;99.90;;;;;;5015541;28;20691;-45
2023/05/04 05:13:03;;;;;;;6.03;3.20;;;7.50;99.90;;;;;;5015561;28;20201;-44
2023/05/04 05:15:28;;;;;;;8.23;3.60;;;7.60;99.90;;;;;;5033250;28;20173;-44
2023/05/04 05:17:54;;;;;;;6.73;3.30;;;7.70;99.90;;;;;;5033168;28;20552;-46
2023/05/04 05:20:20;;;;;;;6.97;3.27;;;7.80;99.90;;;;;;5033629;28;20177;-44
2023/05/04 05:22:45;;;;;;;9.13;3.53;;;8.00;99.90;;;;;;5033294;28;20246;-44
2023/05/04 05:25:11;;;;;;;5.73;3.40;;;8.10;99.90;;;;;;5033041;28;20264;-45
2023/05/04 05:27:36;;;;;;;5.73;3.00;;;8.20;99.90;;;;;;5033194;28;20216;-43
2023/05/04 05:30:04;;;;;;;7.60;3.30;;;8.30;99.90;;;;;;5033064;28;20250;-44
2023/05/04 05:32:30;;;;;;;5.53;3.33;;;8.50;99.90;;;;;;5036057;28;20197;-45
2023/05/04 05:34:56;;;;;;;8.67;2.93;;;8.60;99.90;;;;;;5037093;28;20180;-45
2023/05/04 05:37:21;;;;;;;5.50;3.17;;;8.70;99.90;;;;;;5037104;28;20197;-45
2023/05/04 05:39:47;;;;;;;6.17;3.17;;;8.90;99.90;;;;;;5037026;28;20173;-44
2023/05/04 05:42:13;;;;;;;4.70;3.10;;;9.00;99.90;;;;;;5036715;28;20197;-44
2023/05/04 05:44:38;;;;;;;9.00;3.33;;;9.00;99.90;;;;;;5036884;28;20549;-45
2023/05/04 05:47:04;;;;;;;6.33;3.10;;;9.20;99.90;;;;;;5037279;28;20227;-45
2023/05/04 05:49:30;;;;;;;6.47;3.40;;;9.30;99.90;;;;;;5037753;28;20733;-45
2023/05/04 05:51:57;;;;;;;5.50;3.70;;;9.40;99.90;;;;;;5037781;28;20161;-46
2023/05/04 05:54:23;;;;;;;6.97;3.10;;;9.50;99.90;;;;;;5037150;28;20173;-46
2023/05/04 05:56:49;;;;;;;5.37;3.50;;;9.60;99.90;;;;;;5037383;28;20229;-45
2023/05/04 05:59:15;;;;;;;4.87;3.00;;;9.70;99.90;;;;;;5056025;28;20203;-45
2023/05/04 06:01:41;;;;;;;9.93;3.27;;;9.80;99.90;;;;;;5053214;28;20618;-45
2023/05/04 06:04:07;;;;;;;6.43;3.07;;;9.90;99.90;;;;;;5036533;28;20550;-44
2023/05/04 06:06:33;;;;;;;6.77;3.03;;;10.00;99.90;;;;;;5036728;28;20192;-45
2023/05/04 06:09:01;;;;;;;6.13;2.80;;;10.20;99.90;;;;;;5036411;28;20166;-47
2023/05/04 06:11:27;;;;;;;5.37;3.13;;;10.30;99.90;;;;;;5036293;28;20169;-45
2023/05/04 06:13:53;;;;;;;7.63;3.30;;;10.40;99.90;;;;;;5036173;28;20620;-44
2023/05/04 06:16:18;;;;;;;6.00;2.73;;;10.60;99.90;;;;;;5036147;28;20210;-44
2023/05/04 06:18:44;;;;;;;8.73;3.70;;;10.70;99.90;;;;;;5036299;28;20266;-45
2023/05/04 06:21:09;;;;;;;4.77;3.10;;;10.90;99.90;;;;;;5018380;28;20180;-43
2023/05/04 06:23:36;;;;;;;10.70;3.77;;;10.90;99.90;;;;;;5035921;28;20198;-44
2023/05/04 06:26:04;;;;;;;5.90;3.50;;;11.10;99.90;;;;;;5036251;28;20181;-45
2023/05/04 06:28:30;;;;;;;3.87;3.00;;;11.30;99.90;;;;;;5036137;28;20191;-43
2023/05/04 06:30:56;;;;;;;6.87;2.87;;;11.50;99.90;;;;;;5035914;28;20184;-44
2023/05/04 06:33:21;;;;;;;4.77;2.33;;;11.60;99.90;;;;;;5036311;28;20214;-44
2023/05/04 06:35:47;;;;;;;3.40;2.70;;;11.70;99.90;;;;;;5035934;28;20743;-46
2023/05/04 06:38:12;;;;;;;9.43;2.90;;;11.70;99.90;;;;;;5035691;28;20236;-46
2023/05/04 06:40:38;;;;;;;3.27;2.77;;;11.90;99.90;;;;;;5035746;28;20515;-47
2023/05/04 06:43:04;;;;;;;6.77;3.10;;;12.10;99.90;;;;;;5034805;28;20551;-45
2023/05/04 06:45:29;;;;;;;6.87;3.40;;;12.20;99.90;;;;;;5035715;28;20543;-45
2023/05/04 06:47:55;;;;;;;3.43;2.70;;;12.40;99.90;;;;;;5035644;28;20207;-46
2023/05/04 06:50:22;;;;;;;5.57;2.90;;;12.60;99.90;;;;;;5035554;28;20199;-44
2023/05/04 06:52:48;;;;;;;5.33;2.80;;;12.70;99.90;;;;;;5035341;28;20208;-46
2023/05/04 06:55:13;;;;;;;6.83;3.43;;;12.70;99.90;;;;;;5035622;28;20184;-47
2023/05/04 06:57:39;;;;;;;13.00;3.60;;;12.90;99.90;;;;;;5035403;28;20197;-46
2023/05/04 07:00:07;;;;;;;6.50;3.50;;;12.90;99.90;;;;;;5035411;28;20664;-46
2023/05/04 07:02:33;;;;;;;7.77;3.47;;;13.00;99.90;;;;;;5035289;28;20596;-45
2023/05/04 07:04:59;;;;;;;5.23;3.13;;;13.10;99.90;;;;;;5035224;28;20169;-46
2023/05/04 07:07:24;;;;;;;8.23;3.33;;;13.20;99.90;;;;;;5035465;28;20177;-43
2023/05/04 07:09:50;;;;;;;6.37;3.07;;;13.20;99.90;;;;;;5017725;28;20208;-47
2023/05/04 07:12:16;;;;;;;11.13;3.93;;;13.30;99.90;;;;;;5035148;28;20228;-45
2023/05/04 07:14:42;;;;;;;5.33;3.33;;;13.30;99.90;;;;;;5035570;28;20585;-46
2023/05/04 07:17:11;;;;;;;6.83;3.40;;;13.40;99.90;;;;;;5035085;28;20243;-45
2023/05/04 07:19:36;;;;;;;4.40;3.13;;;13.50;99.90;;;;;;5035312;28;20192;-45
2023/05/04 07:22:02;;;;;;;4.13;2.50;;;13.70;99.90;;;;;;5035404;28;20634;-47
2023/05/04 07:24:30;;;;;;;5.97;3.93;;;13.80;99.90;;;;;;5035344;28;20181;-46
2023/05/04 07:26:56;;;;;;;7.63;3.47;;;13.90;99.90;;;;;;5035029;28;20175;-45
2023/05/04 07:29:21;;;;;;;6.60;3.73;;;13.90;99.90;;;;;;5034871;28;20177;-46
2023/05/04 07:31:47;;;;;;;8.10;4.23;;;14.00;99.90;;;;;;5034946;28;20186;-45
2023/05/04 07:34:13;;;;;;;6.37;3.67;;;14.20;99.90;;;;;;5035042;28;20180;-44
2023/05/04 07:36:38;;;;;;;7.83;3.70;;;14.30;99.90;;;;;;5034720;28;20181;-46
2023/05/04 07:39:04;;;;;;;6.83;3.70;;;14.40;99.90;;;;;;5035185;28;20213;-47
2023/05/04 07:41:30;;;;;;;8.73;4.20;;;14.50;99.90;;;;;;5034915;28;20179;-47
2023/05/04 07:43:55;;;;;;;8.23;3.93;;;14.60;99.90;;;;;;5034864;28;20200;-45
2023/05/04 07:46:21;;;;;;;5.00;3.70;;;14.60;99.90;;;;;;5034895;28;20168;-46
2023/05/04 07:48:48;;;;;;;5.60;3.40;;;14.70;99.90;;;;;;5034445;28;20193;-46
2023/05/04 07:51:15;;;;;;;8.80;3.80;;;14.70;99.90;;;;;;5034648;28;20192;-46
2023/05/04 07:53:42;;;;;;;6.73;3.87;;;14.80;99.90;;;;;;5034217;28;20212;-46
2023/05/04 07:56:10;;;;;;;5.10;3.57;;;14.80;99.90;;;;;;5034397;28;20200;-46
2023/05/04 07:58:35;;;;;;;8.47;4.43;;;14.90;99.90;;;;;;5035026;28;20577;-47
2023/05/04 08:01:01;;;;;;;5.10;3.83;;;15.00;99.90;;;;;;5034525;28;20185;-47
2023/05/04 08:03:29;;;;;;;9.70;4.07;;;15.10;99.90;;;;;;5034116;28;20667;-45
2023/05/04 08:05:55;;;;;;;10.93;3.83;;;15.30;99.90;;;;;;5034180;28;20195;-47
2023/05/04 08:08:21;;;;;;;4.93;3.97;;;15.40;99.90;;;;;;5035002;28;20193;-46
2023/05/04 08:10:46;;;;;;;5.93;3.70;;;15.60;99.90;;;;;;5034043;28;20594;-46
2023/05/04 08:13:12;;;;;;;7.33;4.33;;;15.80;99.90;;;;;;5034024;28;20247;-47
2023/05/04 08:15:38;;;;;;;8.13;3.87;;;15.90;99.90;;;;;;5033987;28;20677;-45
2023/05/04 08:18:03;;;;;;;7.67;4.27;;;16.00;99.90;;;;;;5033860;28;20204;-47
2023/05/04 08:20:29;;;;;;;8.63;3.83;;;16.10;99.90;;;;;;5033908;28;20181;-47
2023/05/04 08:22:54;;;;;;;9.10;4.07;;;16.20;99.90;;;;;;5034128;28;20300;-47
2023/05/04 08:25:21;;;;;;;9.30;3.77;;;16.30;99.90;;;;;;5033857;28;20176;-46
2023/05/04 08:27:47;;;;;;;10.27;4.40;;;16.40;99.90;;;;;;5033717;28;20737;-46
2023/05/04 08:30:13;;;;;;;8.57;3.83;;;16.50;99.90;;;;;;5034026;28;20212;-46
2023/05/04 08:32:38;;;;;;;6.33;4.03;;;16.60;99.90;;;;;;5033985;28;20212;-47
2023/05/04 08:35:05;;;;;;;4.10;3.13;;;16.80;99.90;;;;;;5034224;28;20188;-47
2023/05/04 08:37:31;;;;;;;4.43;3.50;;;16.90;99.90;;;;;;5034294;28;20217;-48
2023/05/04 08:39:57;;;;;;;5.23;3.33;;;17.10;99.90;;;;;;5016354;28;20199;-46
2023/05/04 08:42:30;;;;;;;7.50;3.63;;;17.10;99.90;;;;;;5016070;28;20208;-46
2023/05/04 08:44:57;;;;;;;7.03;3.50;;;17.20;99.90;;;;;;5034836;28;20497;-46
2023/05/04 08:47:27;;;;;;;6.57;3.10;;;17.20;99.90;;;;;;5016156;28;20195;-47
2023/05/04 08:49:54;;;;;;;7.47;3.57;;;17.20;99.90;;;;;;5034093;28;20196;-48
2023/05/04 08:52:24;;;;;;;4.53;3.13;;;17.30;99.90;;;;;;5033813;28;20200;-47
2023/05/04 08:54:55;;;;;;;3.83;3.07;;;17.40;99.90;;;;;;5033904;28;20284;-46
2023/05/04 08:57:22;;;;;;;4.77;3.53;;;17.50;99.90;;;;;;5033796;28;20672;-48
2023/05/04 08:59:52;;;;;;;6.53;3.33;;;17.60;99.90;;;;;;5033442;28;20204;-48
2023/05/04 09:02:20;;;;;;;3.70;2.97;;;17.70;99.90;;;;;;5033574;28;20204;-47
2023/05/04 09:04:46;;;;;;;7.63;3.70;;;17.80;99.90;;;;;;5033514;28;20173;-46
2023/05/04 09:07:11;;;;;;;8.83;3.77;;;17.90;99.90;;;;;;5038688;28;20251;-47
2023/05/04 09:09:37;;;;;;;7.23;3.90;;;18.00;99.90;;;;;;5040301;28;20656;-46
2023/05/04 09:12:03;;;;;;;7.60;3.97;;;18.10;99.90;;;;;;5039724;28;20192;-46
2023/05/04 09:14:33;;;;;;;9.17;3.87;;;18.10;99.90;;;;;;5040055;28;20531;-47
2023/05/04 09:17:00;;;;;;;5.80;3.93;;;18.30;99.90;;;;;;5039637;28;20248;-47
2023/05/04 09:19:32;;;;;;;13.67;4.30;;;18.40;99.90;;;;;;5039928;28;20187;-47
2023/05/04 09:22:00;;;;;;;6.37;3.90;;;18.50;99.90;;;;;;5023167;28;20172;-47
2023/05/04 09:24:28;;;;;;;6.60;3.93;;;18.60;99.90;;;;;;5039928;28;20184;-47
2023/05/04 09:26:53;;;;;;;7.67;4.10;;;18.70;99.90;;;;;;5039666;28;20173;-48
2023/05/04 09:29:21;;;;;;;7.30;4.17;;;18.80;99.90;;;;;;5039780;28;20318;-47
2023/05/04 09:31:51;;;;;;;7.73;3.63;;;18.90;99.90;;;;;;5039452;28;20195;-46
2023/05/04 09:34:19;;;;;;;8.00;4.57;;;18.90;99.90;;;;;;5039544;28;20173;-48
2023/05/04 09:36:56;;;;;;;8.17;4.77;;;18.90;99.90;;;;;;5039851;28;20189;-47
2023/05/04 09:39:22;;;;;;;7.97;4.77;;;18.90;99.90;;;;;;5039753;28;20228;-48
2023/05/04 09:41:48;;;;;;;5.33;4.43;;;19.10;99.90;;;;;;5039502;28;20637;-47
2023/05/04 09:44:22;;;;;;;7.40;4.50;;;19.30;99.90;;;;;;5039768;28;20311;-47
2023/05/04 09:46:53;;;;;;;10.63;4.77;;;19.50;99.90;;;;;;5039746;28;20177;-47
2023/05/04 09:49:37;;;;;;;3.97;3.00;;;19.70;99.90;;;;;;5045087;28;20581;-48
2023/05/04 09:52:05;;;;;;;7.43;3.90;;;19.80;99.90;;;;;;5044113;28;20201;-47
2023/05/04 09:54:37;;;;;;;5.00;4.23;;;19.80;99.90;;;;;;5042083;28;20185;-47
2023/05/04 09:57:11;;;;;;;4.67;4.17;;;19.90;99.90;;;;;;5039431;28;20531;-48
2023/05/04 09:59:38;;;;;;;5.67;3.67;;;19.90;99.90;;;;;;5039657;28;20189;-48
2023/05/04 10:02:05;;;;;;;7.43;4.07;;;20.00;99.90;;;;;;5039580;28;20197;-47
2023/05/04 10:04:35;;;;;;;4.83;4.30;;;20.10;99.90;;;;;;5039529;28;20253;-46
2023/05/04 10:07:05;;;;;;;7.73;4.27;;;20.20;99.90;;;;;;5039555;28;20187;-47
2023/05/04 10:09:32;;;;;;;6.80;4.40;;;20.30;99.90;;;;;;5039262;28;20250;-48
2023/05/04 10:12:05;;;;;;;7.33;3.77;;;20.40;99.90;;;;;;5039198;28;20176;-47
2023/05/04 10:14:33;;;;;;;5.67;4.33;;;20.50;99.90;;;;;;5039496;28;20169;-48
2023/05/04 10:17:06;;;;;;;6.80;4.57;;;20.60;99.90;;;;;;5038904;28;20647;-47
2023/05/04 10:19:50;;;;;;;7.37;4.30;;;20.60;99.90;;;;;;5036157;28;20161;-47
2023/05/04 10:22:36;;;;;;;9.30;4.00;;;20.70;99.90;;;;;;5036257;28;20200;-48
2023/05/04 10:25:33;;;;;;;5.23;3.43;;;20.80;99.90;;;;;;5036565;28;20162;-46
2023/05/04 10:28:17;;;;;;;9.20;3.77;;;20.90;99.90;;;;;;5036197;28;20188;-48
2023/05/04 10:30:43;;;;;;;5.77;3.67;;;21.10;99.90;;;;;;5035909;28;20231;-48
2023/05/04 10:33:09;;;;;;;6.97;3.93;;;21.20;99.90;;;;;;5035794;28;20204;-49
2023/05/04 10:35:34;;;;;;;4.77;3.83;;;21.30;99.90;;;;;;5035814;28;20577;-47
2023/05/04 10:38:01;;;;;;;7.87;3.57;;;21.30;99.90;;;;;;5036040;28;20240;-48
2023/05/04 10:40:38;;;;;;;5.97;3.70;;;21.30;99.90;;;;;;5035969;28;20263;-47
2023/05/04 10:43:06;;;;;;;6.00;3.97;;;21.30;99.90;;;;;;5035905;28;20246;-48
2023/05/04 10:45:39;;;;;;;7.47;3.83;;;21.30;99.90;;;;;;5035895;28;20594;-48
2023/05/04 10:48:06;;;;;;;10.93;3.70;;;21.40;99.90;;;;;;5035779;28;20708;-48
2023/05/04 10:50:48;;;;;;;4.77;3.37;;;21.50;99.90;;;;;;5035620;28;20687;-48
2023/05/04 10:53:16;;;;;;;8.50;3.43;;;21.60;99.90;;;;;;5035407;28;20208;-48
2023/05/04 10:55:43;;;;;;;3.03;2.73;;;21.80;99.90;;;;;;5035411;28;20637;-48
2023/05/04 10:58:13;;;;;;;5.00;3.00;;;21.90;99.90;;;;;;5035609;28;20287;-49
2023/05/04 11:00:40;;;;;;;4.43;3.47;;;22.00;99.90;;;;;;5035700;28;20236;-48
2023/05/04 11:03:06;;;;;;;4.47;3.67;;;22.20;99.90;;;;;;5035228;28;20197;-47
2023/05/04 11:05:46;;;;;;;2.67;1.97;;;22.30;99.90;;;;;;5035281;28;20169;-48
2023/05/04 11:08:23;;;;;;;11.53;2.73;;;22.40;99.90;;;;;;5035532;28;20181;-48
2023/05/04 11:11:01;;;;;;;8.40;2.83;;;22.60;99.90;;;;;;5035213;28;20176;-47
2023/05/04 11:13:28;;;;;;;3.80;2.30;;;22.70;99.90;;;;;;5035069;28;20665;-49
2023/05/04 11:15:54;;;;;;;10.10;2.73;;;22.70;99.90;;;;;;5035279;28;20192;-47
2023/05/04 11:18:27;;;;;;;5.10;2.70;;;22.80;99.90;;;;;;5034991;28;20208;-48
2023/05/04 11:20:54;;;;;;;5.30;2.67;;;22.80;99.90;;;;;;5035227;28;20185;-48
2023/05/04 11:23:21;;;;;;;3.77;2.60;;;22.80;99.90;;;;;;5034883;28;20620;-49
2023/05/04 11:25:47;;;;;;;4.87;2.50;;;22.80;99.90;;;;;;5035163;28;20181;-48
2023/05/04 11:28:13;;;;;;;6.80;2.67;;;22.90;99.90;;;;;;5034802;28;20634;-47
2023/05/04 11:30:40;;;;;;;3.50;2.70;;;22.90;99.90;;;;;;5034336;28;20181;-48
2023/05/04 11:33:13;;;;;;;5.03;2.30;;;23.10;99.90;;;;;;5034903;28;20551;-47
2023/05/04 11:35:40;;;;;;;4.10;2.80;;;23.20;99.90;;;;;;5034667;28;20188;-48
2023/05/04 11:38:07;;;;;;;3.70;2.60;;;23.30;99.90;;;;;;5034500;28;20209;-47
2023/05/04 11:40:33;;;;;;;4.70;3.03;;;23.30;99.90;;;;;;5034602;28;20722;-48
2023/05/04 11:43:02;;;;;;;6.43;2.73;;;23.40;99.90;;;;;;5034485;28;20197;-48
2023/05/04 11:45:29;;;;;;;4.40;2.77;;;23.30;99.90;;;;;;5034799;28;20173;-48
2023/05/04 11:47:56;;;;;;;2.67;2.47;;;23.40;99.90;;;;;;5034581;28;20212;-49
2023/05/04 11:50:22;;;;;;;3.47;2.20;;;23.40;99.90;;;;;;5034655;28;20207;-49
2023/05/04 11:52:48;;;;;;;3.93;2.60;;;23.40;99.90;;;;;;5034351;28;20204;-48
2023/05/04 11:55:28;;;;;;;6.10;2.90;;;23.50;99.90;;;;;;5035135;28;20575;-49
2023/05/04 11:58:02;;;;;;;3.10;2.60;;;23.50;99.90;;;;;;5016513;28;20209;-48
2023/05/04 12:00:39;;;;;;;4.07;2.47;;;23.50;99.90;;;;;;5034494;28;20172;-48
2023/05/04 12:03:06;;;;;;;4.63;2.40;;;23.50;99.90;;;;;;5034149;28;20691;-48
2023/05/04 12:05:33;;;;;;;3.93;2.40;;;23.60;99.90;;;;;;5034311;28;20187;-47
2023/05/04 12:07:59;;;;;;;5.00;3.00;;;23.70;99.90;;;;;;5034281;28;20188;-47
2023/05/04 12:10:29;;;;;;;7.43;3.03;;;23.70;99.90;;;;;;5034318;28;20188;-48
2023/05/04 12:12:54;;;;;;;3.60;2.40;;;23.80;99.90;;;;;;5034148;28;20252;-48
2023/05/04 12:15:31;;;;;;;9.03;2.43;;;23.80;99.90;;;;;;5034178;28;20192;-47
2023/05/04 12:17:57;;;;;;;4.67;2.40;;;23.80;99.90;;;;;;5033867;28;20207;-45
2023/05/04 12:20:24;;;;;;;5.23;3.07;;;23.90;99.90;;;;;;5017113;28;20181;-46
2023/05/04 12:22:50;;;;;;;8.37;3.07;;;23.90;99.90;;;;;;5016061;28;20571;-47
2023/05/04 12:25:19;;;;;;;3.80;2.50;;;23.90;99.90;;;;;;5034009;28;20182;-46
2023/05/04 12:27:45;;;;;;;4.30;2.40;;;23.90;99.90;;;;;;5033657;28;20223;-46
2023/05/04 12:30:11;;;;;;;3.47;2.70;;;24.00;99.90;;;;;;5033720;28;20204;-46
2023/05/04 12:32:37;;;;;;;3.37;2.50;;;24.00;99.90;;;;;;5033581;28;20205;-45
2023/05/04 12:35:03;;;;;;;6.60;2.70;;;24.10;99.90;;;;;;5033680;28;20188;-46
2023/05/04 12:37:30;;;;;;;5.80;2.63;;;24.30;99.90;;;;;;5033798;28;20216;-47
2023/05/04 12:39:56;;;;;;;3.53;2.70;;;24.30;99.90;;;;;;5033615;28;20181;-45
2023/05/04 12:42:22;;;;;;;3.73;2.30;;;24.30;99.90;;;;;;5032792;28;20197;-47
2023/05/04 12:44:47;;;;;;;5.87;3.03;;;24.40;99.90;;;;;;5033771;28;20181;-46
2023/05/04 12:47:14;;;;;;;4.33;2.63;;;24.50;99.90;;;;;;5033560;28;20185;-47
2023/05/04 12:49:39;;;;;;;4.53;2.30;;;24.40;99.90;;;;;;5033396;28;20657;-46
2023/05/04 12:52:05;;;;;;;7.53;2.80;;;24.50;99.90;;;;;;5033558;28;20204;-46